createdAt,value
2022-11-26T00:01:22.217Z,11.57
2022-11-26T00:03:49.692Z,10.18
2022-11-26T00:06:29.687Z,10.60
2022-11-26T00:08:56.880Z,9.90
2022-11-26T00:11:24.078Z,11.30
2022-11-26T00:13:51.227Z,9.98
2022-11-26T00:16:18.558Z,11.70
2022-11-26T00:18:45.737Z,9.68
2022-11-26T00:21:33.106Z,10.52
2022-11-26T00:24:02.947Z,11.57
2022-11-26T00:26:30.223Z,11.80
2022-11-26T00:29:00.225Z,10.95
2022-11-26T00:31:27.955Z,11.05
2022-11-26T00:33:55.297Z,12.38
2022-11-26T00:36:28.156Z,12.43
2022-11-26T00:39:01.610Z,14.75
2022-11-26T00:41:31.756Z,14.90
2022-11-26T00:43:58.988Z,16.50
2022-11-26T00:46:26.335Z,15.00
2022-11-26T00:48:53.535Z,16.55
2022-11-26T00:51:22.511Z,17.08
2022-11-26T00:53:50.638Z,13.98
2022-11-26T00:56:19.672Z,16.02
2022-11-26T00:58:47.816Z,15.73
2022-11-26T01:01:17.205Z,14.80
2022-11-26T01:03:44.523Z,14.85
2022-11-26T01:06:15.784Z,13.60
2022-11-26T01:08:43.495Z,15.43
2022-11-26T01:11:12.559Z,14.60
2022-11-26T01:13:39.714Z,16.20
2022-11-26T01:16:14.412Z,16.92
2022-11-26T01:18:41.591Z,17.42
2022-11-26T01:21:11.040Z,16.02
2022-11-26T01:23:38.298Z,18.30
2022-11-26T01:26:06.701Z,16.33
2022-11-26T01:28:34.003Z,17.75
2022-11-26T01:31:01.220Z,18.52
2022-11-26T01:33:28.359Z,17.38
2022-11-26T01:35:55.542Z,18.25
2022-11-26T01:38:22.667Z,17.40
2022-11-26T01:41:16.003Z,18.58
2022-11-26T01:43:43.849Z,21.42
2022-11-26T01:46:22.411Z,21.63
2022-11-26T01:48:50.500Z,21.35
2022-11-26T01:51:19.983Z,22.15
2022-11-26T01:53:49.255Z,22.70
2022-11-26T01:56:37.090Z,23.20
2022-11-26T01:59:08.522Z,22.73
2022-11-26T02:01:35.830Z,24.13
2022-11-26T02:04:20.756Z,22.85
2022-11-26T02:06:49.153Z,23.73
2022-11-26T02:09:16.732Z,23.60
2022-11-26T02:11:44.320Z,22.58
2022-11-26T02:14:14.533Z,25.33
2022-11-26T02:16:47.781Z,25.30
2022-11-26T02:19:30.926Z,23.98
2022-11-26T02:22:05.395Z,22.67
2022-11-26T02:24:38.814Z,23.95
2022-11-26T02:27:09.091Z,23.40
2022-11-26T02:29:54.788Z,24.27
2022-11-26T02:32:24.832Z,21.38
2022-11-26T02:34:58.944Z,22.88
2022-11-26T02:37:28.546Z,21.60
2022-11-26T02:39:56.920Z,20.52
2022-11-26T02:42:24.439Z,20.98
2022-11-26T02:44:51.877Z,23.55
2022-11-26T02:47:20.384Z,21.98
2022-11-26T02:49:49.043Z,21.40
2022-11-26T02:52:17.285Z,21.58
2022-11-26T02:54:45.218Z,18.75
2022-11-26T02:57:13.695Z,19.85
2022-11-26T02:59:41.262Z,18.48
2022-11-26T03:02:26.953Z,18.30
2022-11-26T03:04:57.172Z,18.55
2022-11-26T03:07:24.569Z,23.98
2022-11-26T03:09:53.171Z,21.27
2022-11-26T03:12:20.454Z,20.10
2022-11-26T03:14:47.598Z,19.50
2022-11-26T03:17:14.727Z,19.55
2022-11-26T03:19:41.926Z,20.08
2022-11-26T03:22:09.278Z,22.55
2022-11-26T03:24:36.798Z,20.63
2022-11-26T03:27:04.363Z,18.33
2022-11-26T03:29:31.606Z,19.67
2022-11-26T03:31:59.179Z,19.60
2022-11-26T03:34:26.680Z,20.15
2022-11-26T03:36:53.988Z,20.80
2022-11-26T03:39:21.126Z,20.23
2022-11-26T03:41:48.370Z,20.77
2022-11-26T03:44:15.724Z,20.38
2022-11-26T03:46:42.981Z,20.80
2022-11-26T03:49:11.188Z,24.67
2022-11-26T03:51:38.419Z,21.52
2022-11-26T03:54:05.559Z,22.45
2022-11-26T03:56:32.788Z,25.45
2022-11-26T03:58:59.928Z,24.45
2022-11-26T04:01:27.232Z,24.20
2022-11-26T04:03:54.433Z,25.45
2022-11-26T04:06:21.607Z,25.92
2022-11-26T04:08:48.758Z,28.55
2022-11-26T04:11:15.919Z,27.65
2022-11-26T04:13:43.094Z,29.98
2022-11-26T04:16:10.321Z,29.55
2022-11-26T04:18:37.607Z,29.30
2022-11-26T04:21:08.253Z,28.70
2022-11-26T04:23:35.991Z,29.90
2022-11-26T04:26:03.145Z,28.30
2022-11-26T04:28:30.303Z,29.55
2022-11-26T04:30:57.483Z,28.52
2022-11-26T04:33:27.119Z,29.00
2022-11-26T04:35:54.453Z,27.15
2022-11-26T04:38:25.502Z,28.13
2022-11-26T04:40:53.210Z,28.05
2022-11-26T04:43:20.379Z,30.27
2022-11-26T04:45:47.604Z,28.90
2022-11-26T04:48:14.946Z,30.40
2022-11-26T04:50:42.098Z,31.95
2022-11-26T04:53:09.242Z,33.78
2022-11-26T04:55:36.407Z,33.08
2022-11-26T04:58:03.553Z,33.08
2022-11-26T05:00:30.705Z,33.60
2022-11-26T05:02:57.940Z,36.08
2022-11-26T05:05:25.172Z,33.05
2022-11-26T05:07:52.391Z,34.50
2022-11-26T05:10:19.664Z,34.88
2022-11-26T05:12:46.789Z,34.53
2022-11-26T05:15:13.971Z,33.25
2022-11-26T05:17:41.189Z,33.67
2022-11-26T05:20:08.740Z,32.70
2022-11-26T05:22:35.935Z,32.85
2022-11-26T05:25:03.072Z,34.13
2022-11-26T05:27:30.295Z,32.53
2022-11-26T05:29:57.482Z,31.20
2022-11-26T05:32:24.633Z,30.73
2022-11-26T05:34:54.522Z,31.08
2022-11-26T05:37:25.763Z,32.10
2022-11-26T05:39:52.920Z,30.70
2022-11-26T05:42:20.052Z,31.52
2022-11-26T05:44:47.246Z,32.72
2022-11-26T05:47:14.482Z,33.13
2022-11-26T05:49:41.603Z,34.20
2022-11-26T05:52:08.768Z,33.47
2022-11-26T05:54:36.072Z,30.98
2022-11-26T05:57:03.384Z,33.22
2022-11-26T05:59:31.049Z,33.13
2022-11-26T06:01:58.244Z,32.08
2022-11-26T06:04:25.463Z,33.45
2022-11-26T06:06:53.119Z,33.97
2022-11-26T06:09:20.427Z,33.00
2022-11-26T06:11:49.447Z,31.58
2022-11-26T06:14:16.731Z,32.83
2022-11-26T06:16:43.902Z,32.95
2022-11-26T06:19:11.582Z,31.23
2022-11-26T06:21:38.728Z,32.42
2022-11-26T06:24:06.219Z,32.67
2022-11-26T06:26:33.346Z,30.55
2022-11-26T06:29:00.512Z,35.72
2022-11-26T06:31:27.754Z,34.90
2022-11-26T06:33:55.777Z,32.65
2022-11-26T06:36:23.339Z,33.17
2022-11-26T06:38:50.484Z,32.15
2022-11-26T06:41:17.713Z,31.13
2022-11-26T06:43:44.903Z,34.15
2022-11-26T06:46:12.769Z,33.00
2022-11-26T06:48:40.450Z,31.55
2022-11-26T06:51:09.334Z,32.85
2022-11-26T06:53:36.568Z,31.10
2022-11-26T06:56:04.782Z,34.10
2022-11-26T06:58:33.054Z,32.65
2022-11-26T07:01:00.369Z,32.65
2022-11-26T07:03:33.056Z,31.55
2022-11-26T07:06:00.663Z,31.50
2022-11-26T07:08:27.828Z,35.30
2022-11-26T07:10:54.986Z,34.25
2022-11-26T07:13:22.172Z,33.35
2022-11-26T07:15:49.334Z,37.35
2022-11-26T07:18:16.489Z,34.13
2022-11-26T07:20:43.651Z,35.35
2022-11-26T07:23:10.822Z,35.17
2022-11-26T07:25:37.947Z,35.35
2022-11-26T07:28:05.221Z,33.80
2022-11-26T07:30:32.381Z,33.65
2022-11-26T07:32:59.557Z,33.38
2022-11-26T07:35:26.735Z,38.38
2022-11-26T07:37:53.943Z,33.38
2022-11-26T07:40:21.457Z,35.05
2022-11-26T07:42:53.095Z,34.65
2022-11-26T07:45:20.522Z,34.17
2022-11-26T07:47:47.671Z,32.85
2022-11-26T07:50:15.164Z,35.50
2022-11-26T07:52:42.295Z,33.22
2022-11-26T07:55:12.657Z,35.20
2022-11-26T07:57:40.032Z,32.50
2022-11-26T08:00:07.640Z,33.95
2022-11-26T08:02:34.835Z,32.90
2022-11-26T08:05:02.003Z,31.80
2022-11-26T08:07:29.679Z,31.38
2022-11-26T08:09:57.275Z,31.63
2022-11-26T08:12:24.413Z,31.52
2022-11-26T08:14:51.590Z,32.90
2022-11-26T08:17:18.744Z,33.67
2022-11-26T08:19:45.887Z,32.95
2022-11-26T08:22:13.028Z,30.73
2022-11-26T08:24:40.557Z,30.48
2022-11-26T08:27:07.907Z,31.30
2022-11-26T08:29:36.751Z,29.48
2022-11-26T08:32:03.982Z,30.38
2022-11-26T08:34:31.181Z,31.20
2022-11-26T08:36:58.318Z,30.35
2022-11-26T08:39:25.840Z,32.15
2022-11-26T08:41:53.196Z,31.23
2022-11-26T08:44:20.575Z,32.10
2022-11-26T08:46:47.767Z,30.83
2022-11-26T08:49:16.673Z,30.25
2022-11-26T08:51:43.990Z,31.65
2022-11-26T08:54:11.143Z,32.00
2022-11-26T08:56:38.308Z,34.38
2022-11-26T08:59:05.571Z,34.88
2022-11-26T09:01:33.547Z,42.28
2022-11-26T09:04:01.544Z,37.75
2022-11-26T09:06:30.088Z,37.42
2022-11-26T09:09:13.230Z,39.85
2022-11-26T09:11:46.766Z,38.13
2022-11-26T09:14:15.077Z,37.20
2022-11-26T09:16:42.324Z,44.13
2022-11-26T09:19:09.691Z,32.15
2022-11-26T09:21:36.842Z,32.50
2022-11-26T09:24:04.375Z,32.08
2022-11-26T09:26:32.437Z,31.35
2022-11-26T09:28:59.796Z,31.52
2022-11-26T09:31:27.031Z,30.80
2022-11-26T09:33:56.780Z,30.38
2022-11-26T09:36:23.959Z,30.88
2022-11-26T09:38:54.393Z,29.15
2022-11-26T09:41:40.038Z,28.73
2022-11-26T09:47:10.085Z,27.80
2022-11-26T09:49:33.768Z,28.13
2022-11-26T09:52:01.051Z,28.63
2022-11-26T09:54:30.119Z,28.05
2022-11-26T09:57:10.291Z,28.13
2022-11-26T09:59:39.647Z,27.05
2022-11-26T10:02:11.679Z,27.85
2022-11-26T10:04:40.866Z,27.63
2022-11-26T10:07:17.142Z,28.00
2022-11-26T10:09:54.658Z,28.33
2022-11-26T10:12:28.042Z,28.10
2022-11-26T10:15:03.133Z,27.15
2022-11-26T10:17:49.227Z,27.15
2022-11-26T10:20:35.045Z,27.73
2022-11-26T10:23:14.453Z,27.52
2022-11-26T10:25:52.247Z,28.90
2022-11-26T10:28:40.494Z,28.02
2022-11-26T10:31:13.688Z,33.33
2022-11-26T10:33:46.536Z,31.30
2022-11-26T10:36:19.979Z,40.50
2022-11-26T10:38:47.167Z,41.00
2022-11-26T10:41:14.661Z,32.85
2022-11-26T10:43:41.809Z,31.17
2022-11-26T10:46:09.001Z,30.25
2022-11-26T10:48:36.376Z,27.10
2022-11-26T10:51:15.745Z,32.92
2022-11-26T10:53:58.994Z,30.10
2022-11-26T10:56:32.278Z,29.98
2022-11-26T10:59:03.315Z,31.50
2022-11-26T11:01:37.388Z,28.98
2022-11-26T11:04:22.391Z,30.83
2022-11-26T11:06:49.563Z,27.33
2022-11-26T11:09:26.050Z,31.45
2022-11-26T11:12:15.284Z,30.38
2022-11-26T11:14:45.674Z,32.33
2022-11-26T11:17:25.087Z,33.08
2022-11-26T11:19:52.303Z,32.22
2022-11-26T11:22:20.360Z,31.27
2022-11-26T11:24:47.894Z,33.08
2022-11-26T11:27:24.198Z,32.85
2022-11-26T11:29:52.294Z,32.97
2022-11-26T11:32:50.960Z,34.28
2022-11-26T11:35:18.152Z,33.92
2022-11-26T11:37:49.475Z,32.20
2022-11-26T11:40:25.429Z,30.40
2022-11-26T11:42:55.120Z,33.58
2022-11-26T11:45:29.296Z,32.53
2022-11-26T11:48:01.503Z,32.63
2022-11-26T11:50:29.429Z,33.42
2022-11-26T11:53:04.626Z,36.83
2022-11-26T11:56:10.407Z,32.85
2022-11-26T11:58:43.562Z,34.22
2022-11-26T12:01:33.778Z,35.35
2022-11-26T12:04:20.101Z,33.40
2022-11-26T12:07:18.287Z,34.03
2022-11-26T12:09:59.443Z,35.22
2022-11-26T12:12:29.783Z,34.60
2022-11-26T12:15:04.850Z,34.67
2022-11-26T12:17:58.529Z,33.55
2022-11-26T12:20:28.946Z,37.78
2022-11-26T12:23:06.448Z,35.58
2022-11-26T12:25:37.944Z,35.45
2022-11-26T12:28:14.738Z,35.63
2022-11-26T12:31:02.770Z,35.50
2022-11-26T12:33:43.498Z,37.63
2022-11-26T12:36:17.760Z,34.65
2022-11-26T12:38:47.384Z,35.38
2022-11-26T12:41:20.485Z,34.00
2022-11-26T12:43:50.830Z,35.15
2022-11-26T12:46:18.092Z,36.63
2022-11-26T12:49:08.164Z,36.60
2022-11-26T12:51:35.329Z,36.72
2022-11-26T12:54:25.502Z,35.15
2022-11-26T12:56:59.014Z,36.28
2022-11-26T12:59:32.139Z,36.17
2022-11-26T13:01:59.786Z,33.95
2022-11-26T13:04:43.805Z,34.60
2022-11-26T13:07:17.061Z,35.30
2022-11-26T13:09:47.231Z,34.88
2022-11-26T13:12:20.556Z,35.05
2022-11-26T13:14:56.749Z,35.60
2022-11-26T13:17:27.891Z,35.00
2022-11-26T13:20:14.119Z,33.60
2022-11-26T13:22:41.257Z,35.15
2022-11-26T13:25:27.212Z,35.78
2022-11-26T13:28:03.232Z,36.13
2022-11-26T13:30:36.500Z,33.15
2022-11-26T13:33:32.939Z,36.13
2022-11-26T13:36:00.047Z,34.30
2022-11-26T13:38:50.655Z,34.30
2022-11-26T13:41:38.027Z,33.95
2022-11-26T13:44:24.201Z,35.47
2022-11-26T13:47:12.176Z,34.30
2022-11-26T13:49:39.338Z,35.50
2022-11-26T13:52:23.531Z,38.25
2022-11-26T13:54:50.690Z,34.55
2022-11-26T13:57:21.984Z,36.45
2022-11-26T13:59:50.410Z,34.45
2022-11-26T14:02:38.030Z,35.00
2022-11-26T14:05:07.371Z,33.70
2022-11-26T14:07:35.850Z,30.08
2022-11-26T14:10:03.744Z,33.83
2022-11-26T14:13:09.260Z,34.42
2022-11-26T14:15:42.173Z,32.42
2022-11-26T14:18:14.076Z,35.67
2022-11-26T14:21:03.936Z,33.65
2022-11-26T14:23:44.735Z,33.50
2022-11-26T14:26:11.915Z,34.08
2022-11-26T14:28:39.239Z,33.42
2022-11-26T14:31:23.806Z,35.08
2022-11-26T14:33:52.935Z,30.58
2022-11-26T14:36:27.583Z,33.13
2022-11-26T14:39:08.435Z,33.92
2022-11-26T14:41:41.648Z,32.67
2022-11-26T14:44:11.747Z,32.22
2022-11-26T14:46:39.488Z,33.75
2022-11-26T14:49:16.895Z,33.60
2022-11-26T14:51:45.685Z,33.03
2022-11-26T14:54:16.830Z,34.72
2022-11-26T14:56:46.577Z,34.30
2022-11-26T14:59:15.988Z,34.05
2022-11-26T15:01:46.551Z,34.63
2022-11-26T15:04:23.022Z,37.13
2022-11-26T15:06:50.163Z,36.65
2022-11-26T15:09:18.771Z,35.45
2022-11-26T15:11:48.610Z,34.33
2022-11-26T15:14:39.628Z,32.67
2022-11-26T15:17:07.559Z,33.00
2022-11-26T15:19:36.930Z,33.53
2022-11-26T15:22:06.444Z,30.77
2022-11-26T15:24:33.710Z,31.05
2022-11-26T15:27:00.873Z,31.67
2022-11-26T15:29:41.379Z,30.35
2022-11-26T15:32:24.920Z,31.92
2022-11-26T15:34:52.770Z,30.75
2022-11-26T15:37:20.041Z,31.60
2022-11-26T15:39:47.204Z,32.15
2022-11-26T15:42:28.899Z,31.35
2022-11-26T15:44:56.291Z,30.83
2022-11-26T15:47:24.845Z,30.17
2022-11-26T15:49:55.083Z,34.22
2022-11-26T15:52:26.846Z,26.00
2022-11-26T15:55:16.250Z,30.80
2022-11-26T15:57:43.852Z,31.02
2022-11-26T16:00:17.359Z,29.58
2022-11-26T16:02:45.481Z,29.08
2022-11-26T16:05:45.271Z,27.83
2022-11-26T16:08:30.425Z,27.23
2022-11-26T16:10:58.828Z,28.10
2022-11-26T16:13:29.998Z,28.50
2022-11-26T16:16:16.246Z,26.58
2022-11-26T16:18:52.595Z,27.98
2022-11-26T16:21:24.581Z,25.50
2022-11-26T16:23:54.668Z,27.02
2022-11-26T16:26:22.066Z,28.65
2022-11-26T16:28:49.462Z,27.67
2022-11-26T16:31:17.389Z,28.60
2022-11-26T16:33:45.083Z,28.15
2022-11-26T16:36:17.623Z,26.92
2022-11-26T16:38:45.116Z,28.58
2022-11-26T16:41:13.360Z,29.58
2022-11-26T16:43:40.539Z,30.10
2022-11-26T16:46:13.450Z,28.52
2022-11-26T16:48:41.212Z,25.13
2022-11-26T16:51:08.344Z,27.13
2022-11-26T16:53:35.619Z,27.55
2022-11-26T16:56:02.879Z,27.27
2022-11-26T16:58:31.604Z,26.30
2022-11-26T17:00:58.967Z,26.20
2022-11-26T17:03:28.098Z,27.05
2022-11-26T17:05:56.748Z,25.70
2022-11-26T17:08:23.925Z,25.65
2022-11-26T17:10:51.456Z,24.88
2022-11-26T17:13:20.511Z,24.08
2022-11-26T17:15:48.212Z,24.00
2022-11-26T17:18:19.943Z,24.15
2022-11-26T17:20:47.230Z,22.80
2022-11-26T17:23:14.705Z,22.38
2022-11-26T17:25:43.894Z,22.60
2022-11-26T17:28:14.563Z,23.08
2022-11-26T17:30:42.671Z,21.88
2022-11-26T17:33:10.233Z,20.48
2022-11-26T17:35:37.670Z,22.73
2022-11-26T17:38:05.416Z,21.75
2022-11-26T17:40:32.607Z,21.23
2022-11-26T17:42:59.791Z,22.05
2022-11-26T17:45:26.923Z,23.40
2022-11-26T17:47:54.159Z,24.95
2022-11-26T17:50:22.592Z,25.10
2022-11-26T17:52:49.887Z,24.80
2022-11-26T17:55:17.447Z,22.27
2022-11-26T17:57:44.630Z,26.02
2022-11-26T18:00:17.381Z,22.08
2022-11-26T18:02:46.236Z,21.00
2022-11-26T18:05:13.881Z,19.50
2022-11-26T18:07:41.474Z,20.35
2022-11-26T18:10:11.345Z,22.05
2022-11-26T18:12:38.831Z,19.77
2022-11-26T18:15:06.554Z,20.33
2022-11-26T18:17:33.709Z,21.02
2022-11-26T18:20:00.934Z,20.05
2022-11-26T18:22:28.535Z,21.10
2022-11-26T18:24:57.166Z,18.90
2022-11-26T18:27:30.645Z,18.67
2022-11-26T18:29:57.924Z,20.33
2022-11-26T18:32:25.124Z,18.88
2022-11-26T18:34:52.503Z,20.45
2022-11-26T18:37:19.940Z,20.83
2022-11-26T18:39:47.075Z,18.08
2022-11-26T18:42:36.014Z,20.40
2022-11-26T18:45:01.726Z,17.08
2022-11-26T18:47:29.041Z,19.88
2022-11-26T18:49:56.187Z,20.00
2022-11-26T18:52:23.399Z,21.00
2022-11-26T18:54:50.667Z,23.90
2022-11-26T18:57:17.838Z,25.00
2022-11-26T18:59:46.650Z,23.90
2022-11-26T19:02:13.982Z,19.88
2022-11-26T19:04:41.341Z,18.65
2022-11-26T19:07:09.496Z,18.83
2022-11-26T19:09:38.105Z,17.48
2022-11-26T19:12:05.529Z,17.98
2022-11-26T19:14:32.888Z,17.60
2022-11-26T19:17:00.569Z,18.70
2022-11-26T19:19:28.283Z,17.77
2022-11-26T19:22:01.052Z,19.00
2022-11-26T19:24:29.287Z,18.13
2022-11-26T19:26:56.522Z,16.80
2022-11-26T19:29:23.689Z,17.02
2022-11-26T19:31:50.925Z,17.52
2022-11-26T19:34:18.058Z,17.48
2022-11-26T19:36:48.547Z,16.67
2022-11-26T19:39:16.325Z,15.98
2022-11-26T19:41:43.645Z,17.15
2022-11-26T19:44:10.833Z,16.48
2022-11-26T19:46:40.816Z,17.65
2022-11-26T19:49:10.362Z,18.23
2022-11-26T19:51:37.490Z,16.48
2022-11-26T19:54:04.960Z,17.25
2022-11-26T19:56:32.609Z,14.65
2022-11-26T19:59:03.075Z,16.80
2022-11-26T20:01:31.616Z,13.98
2022-11-26T20:04:02.963Z,16.05
2022-11-26T20:06:31.008Z,21.25
2022-11-26T20:08:59.098Z,20.80
2022-11-26T20:11:27.268Z,41.67
2022-11-26T20:13:54.642Z,16.90
2022-11-26T20:16:23.860Z,17.45
2022-11-26T20:18:51.240Z,14.88
2022-11-26T20:21:19.865Z,14.15
2022-11-26T20:23:47.640Z,15.20
2022-11-26T20:26:18.996Z,16.63
2022-11-26T20:28:46.524Z,15.30
2022-11-26T20:31:16.357Z,15.32
2022-11-26T20:33:46.480Z,14.48
2022-11-26T20:36:15.282Z,14.73
2022-11-26T20:38:42.568Z,13.80
2022-11-26T20:41:15.994Z,15.40
2022-11-26T20:43:43.563Z,13.45
2022-11-26T20:46:12.151Z,16.02
2022-11-26T20:48:40.680Z,14.10
2022-11-26T20:51:09.569Z,14.43
2022-11-26T20:53:37.865Z,13.43
2022-11-26T20:56:05.450Z,13.90
2022-11-26T20:58:32.772Z,13.93
2022-11-26T21:01:01.422Z,13.70
2022-11-26T21:03:29.191Z,12.80
2022-11-26T21:05:56.396Z,13.25
2022-11-26T21:08:23.812Z,15.68
2022-11-26T21:10:51.305Z,13.25
2022-11-26T21:13:19.835Z,14.30
2022-11-26T21:15:47.478Z,14.40
2022-11-26T21:18:15.064Z,13.88
2022-11-26T21:20:43.069Z,14.85
2022-11-26T21:23:11.733Z,13.25
2022-11-26T21:25:40.198Z,14.10
2022-11-26T21:28:07.737Z,13.93
2022-11-26T21:30:35.775Z,14.23
2022-11-26T21:33:08.993Z,12.77
2022-11-26T21:35:36.935Z,13.13
2022-11-26T21:38:04.187Z,15.95
2022-11-26T21:40:31.358Z,13.48
2022-11-26T21:42:58.894Z,12.63
2022-11-26T21:45:27.806Z,11.60
2022-11-26T21:47:55.058Z,11.80
2022-11-26T21:50:22.232Z,13.15
2022-11-26T21:52:49.450Z,13.18
2022-11-26T21:55:16.741Z,12.15
2022-11-26T21:57:44.012Z,13.02
2022-11-26T22:00:11.437Z,13.00
2022-11-26T22:02:38.632Z,12.68
2022-11-26T22:05:06.029Z,11.45
2022-11-26T22:07:33.512Z,11.77
2022-11-26T22:10:00.870Z,11.35
2022-11-26T22:12:28.168Z,11.65
2022-11-26T22:14:55.369Z,11.48
2022-11-26T22:17:22.482Z,12.05
2022-11-26T22:19:49.606Z,12.10
2022-11-26T22:22:16.748Z,12.25
2022-11-26T22:24:43.894Z,12.00
2022-11-26T22:27:11.185Z,11.90
2022-11-26T22:29:38.576Z,12.18
2022-11-26T22:32:05.877Z,12.85
2022-11-26T22:34:33.059Z,12.48
2022-11-26T22:37:00.176Z,12.95
2022-11-26T22:39:27.482Z,14.45
2022-11-26T22:41:54.675Z,15.52
2022-11-26T22:44:21.995Z,16.73
2022-11-26T22:46:49.197Z,17.67
2022-11-26T22:49:18.793Z,19.15
2022-11-26T22:51:47.403Z,21.42
2022-11-26T22:54:15.404Z,18.90
2022-11-26T22:56:42.606Z,16.85
2022-11-26T22:59:11.592Z,15.90
2022-11-26T23:01:39.220Z,14.35
2022-11-26T23:04:07.961Z,13.93
2022-11-26T23:06:35.783Z,14.20
2022-11-26T23:09:03.867Z,14.38
2022-11-26T23:11:32.216Z,14.25
2022-11-26T23:13:59.414Z,12.80
2022-11-26T23:16:27.292Z,13.00
2022-11-26T23:18:55.753Z,11.82
2022-11-26T23:21:23.930Z,12.98
2022-11-26T23:23:51.469Z,12.85
2022-11-26T23:26:26.188Z,12.43
2022-11-26T23:28:54.510Z,13.57
2022-11-26T23:31:23.203Z,11.65
2022-11-26T23:33:50.372Z,12.05
2022-11-26T23:36:17.770Z,12.15
2022-11-26T23:38:44.962Z,13.05
2022-11-26T23:41:12.514Z,12.23
2022-11-26T23:43:39.680Z,11.88
2022-11-26T23:46:20.303Z,12.43
2022-11-26T23:48:47.724Z,12.20
2022-11-26T23:51:16.515Z,13.23
2022-11-26T23:53:44.693Z,12.98
2022-11-26T23:56:13.717Z,13.80
2022-11-26T23:58:40.918Z,13.25
